createdAt,value
2018-08-11T00:00:19.673Z,1.90
2018-08-11T00:02:48.982Z,1.70
2018-08-11T00:05:18.282Z,1.60
2018-08-11T00:07:47.782Z,1.87
2018-08-11T00:10:16.985Z,2.03
2018-08-11T00:12:45.964Z,1.60
2018-08-11T00:15:16.250Z,1.30
2018-08-11T00:17:45.589Z,1.33
2018-08-11T00:20:16.933Z,1.30
2018-08-11T00:22:45.983Z,1.60
2018-08-11T00:25:19.617Z,1.70
2018-08-11T00:27:48.588Z,1.97
2018-08-11T00:30:20.705Z,1.63
2018-08-11T00:32:49.744Z,2.00
2018-08-11T00:35:18.762Z,1.87
2018-08-11T00:37:47.840Z,1.63
2018-08-11T00:40:20.597Z,2.90
2018-08-11T00:42:50.437Z,2.03
2018-08-11T00:45:19.763Z,1.70
2018-08-11T00:47:48.794Z,1.77
2018-08-11T00:50:21.962Z,1.90
2018-08-11T00:52:51.002Z,1.80
2018-08-11T00:55:20.061Z,1.60
2018-08-11T00:57:49.109Z,1.90
2018-08-11T01:00:19.850Z,1.83
2018-08-11T01:02:48.858Z,2.37
2018-08-11T01:05:19.086Z,2.40
2018-08-11T01:07:48.589Z,1.67
2018-08-11T01:10:18.100Z,1.97
2018-08-11T01:12:47.704Z,1.60
2018-08-11T01:15:18.803Z,2.23
2018-08-11T01:17:48.707Z,1.90
2018-08-11T01:20:17.873Z,1.70
2018-08-11T01:22:47.423Z,1.67
2018-08-11T01:25:16.473Z,1.67
2018-08-11T01:27:45.448Z,1.77
2018-08-11T01:30:17.529Z,1.90
2018-08-11T01:32:46.580Z,2.03
2018-08-11T01:35:16.511Z,1.77
2018-08-11T01:37:46.073Z,2.17
2018-08-11T01:40:16.057Z,2.00
2018-08-11T01:42:46.182Z,1.67
2018-08-11T01:45:15.677Z,1.80
2018-08-11T01:47:44.810Z,1.80
2018-08-11T01:50:14.789Z,1.90
2018-08-11T01:52:45.817Z,1.60
2018-08-11T01:55:16.136Z,1.60
2018-08-11T01:57:45.254Z,2.07
2018-08-11T02:00:15.670Z,1.60
2018-08-11T02:02:44.635Z,1.53
2018-08-11T02:05:13.929Z,2.13
2018-08-11T02:07:43.612Z,2.00
2018-08-11T02:10:17.183Z,2.20
2018-08-11T02:12:46.799Z,2.00
2018-08-11T02:15:16.183Z,2.30
2018-08-11T02:17:45.181Z,2.13
2018-08-11T02:20:15.519Z,2.00
2018-08-11T02:22:45.599Z,2.50
2018-08-11T02:25:14.628Z,2.90
2018-08-11T02:27:43.647Z,2.27
2018-08-11T02:30:16.618Z,2.20
2018-08-11T02:32:47.933Z,2.10
2018-08-11T02:35:16.935Z,2.73
2018-08-11T02:37:45.873Z,2.00
2018-08-11T02:40:16.024Z,2.03
2018-08-11T02:42:45.025Z,2.50
2018-08-11T02:45:15.893Z,2.00
2018-08-11T02:47:45.381Z,2.20
2018-08-11T02:50:14.417Z,2.60
2018-08-11T02:52:43.598Z,2.07
2018-08-11T02:55:12.625Z,3.03
2018-08-11T02:57:41.585Z,2.10
2018-08-11T03:00:11.703Z,2.50
2018-08-11T03:02:40.761Z,2.70
2018-08-11T03:05:09.691Z,2.50
2018-08-11T03:07:38.967Z,2.43
2018-08-11T03:10:09.228Z,2.37
2018-08-11T03:12:38.421Z,2.60
2018-08-11T03:15:08.723Z,2.60
2018-08-11T03:17:37.912Z,2.60
2018-08-11T03:20:10.769Z,2.37
2018-08-11T03:22:39.981Z,2.53
2018-08-11T03:25:10.193Z,2.70
2018-08-11T03:27:39.463Z,2.27
2018-08-11T03:30:08.736Z,2.80
2018-08-11T03:32:37.765Z,3.03
2018-08-11T03:35:06.803Z,2.30
2018-08-11T03:37:35.830Z,2.37
2018-08-11T03:40:06.347Z,2.60
2018-08-11T03:42:35.350Z,2.47
2018-08-11T03:45:04.608Z,2.50
2018-08-11T03:47:33.641Z,2.20
2018-08-11T03:50:02.600Z,2.20
2018-08-11T03:52:31.833Z,2.00
2018-08-11T03:55:00.772Z,2.00
2018-08-11T03:57:29.805Z,2.30
2018-08-11T03:59:58.772Z,2.10
2018-08-11T04:02:27.805Z,2.10
2018-08-11T04:04:56.817Z,1.70
2018-08-11T04:07:25.781Z,2.10
2018-08-11T04:09:58.672Z,2.13
2018-08-11T04:12:27.652Z,1.70
2018-08-11T04:14:56.642Z,2.00
2018-08-11T04:17:30.563Z,1.87
2018-08-11T04:19:59.584Z,2.13
2018-08-11T04:22:28.749Z,1.97
2018-08-11T04:24:58.960Z,2.23
2018-08-11T04:27:28.080Z,1.80
2018-08-11T04:29:57.151Z,2.07
2018-08-11T04:32:26.468Z,1.90
2018-08-11T04:34:56.715Z,2.03
2018-08-11T04:37:26.014Z,1.67
2018-08-11T04:39:55.117Z,2.07
2018-08-11T04:42:24.137Z,1.80
2018-08-11T04:44:53.105Z,2.00
2018-08-11T04:47:22.199Z,1.70
2018-08-11T04:49:51.517Z,2.07
2018-08-11T04:52:21.533Z,1.97
2018-08-11T04:54:50.521Z,1.70
2018-08-11T04:57:19.441Z,1.83
2018-08-11T04:59:48.422Z,1.87
2018-08-11T05:02:17.380Z,2.33
2018-08-11T05:04:46.325Z,2.30
2018-08-11T05:07:15.448Z,2.10
2018-08-11T05:09:45.387Z,2.10
2018-08-11T05:12:14.457Z,2.20
2018-08-11T05:14:43.711Z,1.80
2018-08-11T05:17:12.869Z,1.87
2018-08-11T05:19:42.332Z,2.10
2018-08-11T05:22:11.367Z,1.90
2018-08-11T05:24:40.303Z,1.60
2018-08-11T05:27:09.333Z,2.23
2018-08-11T05:29:43.855Z,2.10
2018-08-11T05:32:12.903Z,1.90
2018-08-11T05:34:41.916Z,1.60
2018-08-11T05:37:10.989Z,1.80
2018-08-11T05:39:41.072Z,2.13
2018-08-11T05:42:10.076Z,2.13
2018-08-11T05:44:39.586Z,2.13
2018-08-11T05:47:08.561Z,2.23
2018-08-11T05:49:37.619Z,2.23
2018-08-11T05:52:06.695Z,1.80
2018-08-11T05:54:35.616Z,2.20
2018-08-11T05:57:04.569Z,2.17
2018-08-11T05:59:33.523Z,1.73
2018-08-11T06:02:02.585Z,1.90
2018-08-11T06:04:31.646Z,1.77
2018-08-11T06:07:00.642Z,1.90
2018-08-11T06:09:29.617Z,1.73
2018-08-11T06:11:58.584Z,1.83
2018-08-11T06:14:27.596Z,1.90
2018-08-11T06:16:56.616Z,2.07
2018-08-11T06:19:25.718Z,2.00
2018-08-11T06:21:54.980Z,1.83
2018-08-11T06:24:23.942Z,1.77
2018-08-11T06:26:52.958Z,1.87
2018-08-11T06:29:21.920Z,1.87
2018-08-11T06:31:50.940Z,1.80
2018-08-11T06:34:19.896Z,2.00
2018-08-11T06:36:48.859Z,1.60
2018-08-11T06:39:17.824Z,1.73
2018-08-11T06:41:46.822Z,1.63
2018-08-11T06:44:15.785Z,1.93
2018-08-11T06:46:44.843Z,1.80
2018-08-11T06:49:13.704Z,2.03
2018-08-11T06:51:42.628Z,1.60
2018-08-11T06:54:11.840Z,1.80
2018-08-11T06:56:40.796Z,2.30
2018-08-11T06:59:09.776Z,1.63
2018-08-11T07:01:38.694Z,1.70
2018-08-11T07:04:07.696Z,1.60
2018-08-11T07:06:36.549Z,2.13
2018-08-11T07:09:08.082Z,1.73
2018-08-11T07:11:37.192Z,1.17
2018-08-11T07:14:06.200Z,1.97
2018-08-11T07:16:35.135Z,1.40
2018-08-11T07:19:04.066Z,2.10
2018-08-11T07:21:32.968Z,1.80
2018-08-11T07:24:02.148Z,1.77
2018-08-11T07:26:31.176Z,1.77
2018-08-11T07:29:00.208Z,1.33
2018-08-11T07:31:30.196Z,1.60
2018-08-11T07:33:59.082Z,1.30
2018-08-11T07:36:28.024Z,1.50
2018-08-11T07:38:56.960Z,1.50
2018-08-11T07:41:25.932Z,1.23
2018-08-11T07:43:54.920Z,1.40
2018-08-11T07:46:23.818Z,1.30
2018-08-11T07:48:52.964Z,1.57
2018-08-11T07:51:21.890Z,1.60
2018-08-11T07:53:50.841Z,1.77
2018-08-11T07:56:19.758Z,1.70
2018-08-11T07:58:48.755Z,1.60
2018-08-11T08:01:17.690Z,1.40
2018-08-11T08:03:46.676Z,1.43
2018-08-11T08:06:19.477Z,1.30
2018-08-11T08:08:48.416Z,1.63
2018-08-11T08:11:17.411Z,1.53
2018-08-11T08:13:46.508Z,1.37
2018-08-11T08:16:15.490Z,1.50
2018-08-11T08:18:44.412Z,1.20
2018-08-11T08:21:13.402Z,1.20
2018-08-11T08:23:42.382Z,1.40
2018-08-11T08:26:11.421Z,1.77
2018-08-11T08:28:40.406Z,1.43
2018-08-11T08:31:09.663Z,1.50
2018-08-11T08:33:38.635Z,1.17
2018-08-11T08:36:07.679Z,1.67
2018-08-11T08:38:36.764Z,1.20
2018-08-11T08:41:05.749Z,1.47
2018-08-11T08:43:34.927Z,1.37
2018-08-11T08:46:03.929Z,1.43
2018-08-11T08:48:32.944Z,1.50
2018-08-11T08:51:02.005Z,1.43
2018-08-11T08:53:33.517Z,1.67
2018-08-11T08:56:02.608Z,1.10
2018-08-11T08:58:31.565Z,1.40
2018-08-11T09:01:00.602Z,1.30
2018-08-11T09:03:29.571Z,1.20
2018-08-11T09:05:58.649Z,8.83
2018-08-11T09:08:27.692Z,12.13
2018-08-11T09:10:56.846Z,7.83
2018-08-11T09:13:25.796Z,2.37
2018-08-11T09:15:54.858Z,1.90
2018-08-11T09:18:23.858Z,2.07
2018-08-11T09:20:52.868Z,1.57
2018-08-11T09:23:25.584Z,1.10
2018-08-11T09:25:54.613Z,1.30
2018-08-11T09:28:23.810Z,1.30
2018-08-11T09:30:52.764Z,1.70
2018-08-11T09:33:21.723Z,0.97
2018-08-11T09:35:50.688Z,1.17
2018-08-11T09:38:19.643Z,1.13
2018-08-11T09:40:48.805Z,1.20
2018-08-11T09:43:17.718Z,1.10
2018-08-11T09:45:46.755Z,1.20
2018-08-11T09:48:15.620Z,1.30
2018-08-11T09:50:44.562Z,1.40
2018-08-11T09:53:13.557Z,1.60
2018-08-11T09:55:42.528Z,1.30
2018-08-11T09:58:12.484Z,1.20
2018-08-11T10:00:48.936Z,1.30
2018-08-11T10:03:17.979Z,1.10
2018-08-11T10:05:46.966Z,1.70
2018-08-11T10:08:15.908Z,1.07
2018-08-11T10:10:44.826Z,1.17
2018-08-11T10:13:13.748Z,1.57
2018-08-11T10:15:42.962Z,1.37
2018-08-11T10:18:11.912Z,1.27
2018-08-11T10:20:40.887Z,1.10
2018-08-11T10:23:09.816Z,1.30
2018-08-11T10:25:40.446Z,1.47
2018-08-11T10:28:14.932Z,0.93
2018-08-11T10:30:43.954Z,1.20
2018-08-11T10:33:12.856Z,1.30
2018-08-11T10:35:41.799Z,1.30
2018-08-11T10:38:14.861Z,1.20
2018-08-11T10:40:43.788Z,1.10
2018-08-11T10:43:12.701Z,1.20
2018-08-11T10:45:41.699Z,1.10
2018-08-11T10:48:10.613Z,1.23
2018-08-11T10:50:39.575Z,1.10
2018-08-11T10:53:08.561Z,1.10
2018-08-11T10:55:37.467Z,1.30
2018-08-11T10:58:06.675Z,1.30
2018-08-11T11:00:35.598Z,1.30
2018-08-11T11:03:04.581Z,1.10
2018-08-11T11:05:33.475Z,1.40
2018-08-11T11:08:02.363Z,1.10
2018-08-11T11:10:31.863Z,1.37
2018-08-11T11:13:00.799Z,1.30
2018-08-11T11:15:29.716Z,1.27
2018-08-11T11:17:58.576Z,1.30
2018-08-11T11:20:27.487Z,1.10
2018-08-11T11:22:56.363Z,1.50
2018-08-11T11:25:26.357Z,1.10
2018-08-11T11:27:55.280Z,1.20
2018-08-11T11:30:24.211Z,1.13
2018-08-11T11:32:53.159Z,1.37
2018-08-11T11:35:22.058Z,1.40
2018-08-11T11:37:51.018Z,1.00
2018-08-11T11:40:21.037Z,1.43
2018-08-11T11:42:49.944Z,1.13
2018-08-11T11:45:18.940Z,1.37
2018-08-11T11:47:47.920Z,1.30
2018-08-11T11:50:16.903Z,1.40
2018-08-11T11:52:45.856Z,1.30
2018-08-11T11:55:14.843Z,1.27
2018-08-11T11:57:43.780Z,1.10
2018-08-11T12:00:12.706Z,1.20
2018-08-11T12:02:41.665Z,1.20
2018-08-11T12:05:10.627Z,1.17
2018-08-11T12:07:39.520Z,1.57
2018-08-11T12:10:08.826Z,1.60
2018-08-11T12:12:37.955Z,1.40
2018-08-11T12:15:07.173Z,1.10
2018-08-11T12:17:36.103Z,1.27
2018-08-11T12:20:05.433Z,1.30
2018-08-11T12:22:34.408Z,1.23
2018-08-11T12:25:03.439Z,1.13
2018-08-11T12:27:32.357Z,1.60
2018-08-11T12:30:01.247Z,0.90
2018-08-11T12:32:30.247Z,1.23
2018-08-11T12:34:59.143Z,1.50
2018-08-11T12:37:28.091Z,1.20
2018-08-11T12:39:57.011Z,1.00
2018-08-11T12:42:25.913Z,1.03
2018-08-11T12:44:55.188Z,1.20
2018-08-11T12:47:24.225Z,1.13
2018-08-11T12:49:53.224Z,1.23
2018-08-11T12:52:22.142Z,1.17
2018-08-11T12:54:51.045Z,1.50
2018-08-11T12:57:20.012Z,1.30
2018-08-11T12:59:48.963Z,1.77
2018-08-11T13:02:18.232Z,1.40
2018-08-11T13:04:47.303Z,1.20
2018-08-11T13:07:16.201Z,1.20
2018-08-11T13:09:45.127Z,1.27
2018-08-11T13:12:14.149Z,1.33
2018-08-11T13:14:43.175Z,1.07
2018-08-11T13:17:12.165Z,1.43
2018-08-11T13:19:41.220Z,1.20
2018-08-11T13:22:11.155Z,1.30
2018-08-11T13:24:40.048Z,1.07
2018-08-11T13:27:08.940Z,1.10
2018-08-11T13:29:37.857Z,1.07
2018-08-11T13:32:06.887Z,1.20
2018-08-11T13:34:35.910Z,1.67
2018-08-11T13:37:04.923Z,1.20
2018-08-11T13:39:33.854Z,1.20
2018-08-11T13:42:02.904Z,1.77
2018-08-11T13:44:31.821Z,1.13
2018-08-11T13:47:00.728Z,1.03
2018-08-11T13:49:29.721Z,1.30
2018-08-11T13:51:58.708Z,1.23
2018-08-11T13:54:27.826Z,1.20
2018-08-11T13:56:56.687Z,1.20
2018-08-11T13:59:25.804Z,1.37
2018-08-11T14:01:54.736Z,1.30
2018-08-11T14:04:23.667Z,1.30
2018-08-11T14:06:52.573Z,1.33
2018-08-11T14:09:21.652Z,1.30
2018-08-11T14:11:50.649Z,1.37
2018-08-11T14:14:19.741Z,1.20
2018-08-11T14:16:48.655Z,1.30
2018-08-11T14:19:17.770Z,1.33
2018-08-11T14:21:46.759Z,1.20
2018-08-11T14:24:15.991Z,1.03
2018-08-11T14:26:45.192Z,1.20
2018-08-11T14:29:14.120Z,1.60
2018-08-11T14:31:45.318Z,1.23
2018-08-11T14:34:14.380Z,1.20
2018-08-11T14:36:44.186Z,1.23
2018-08-11T14:39:13.368Z,1.30
2018-08-11T14:41:43.218Z,1.50
2018-08-11T14:44:12.101Z,1.57
2018-08-11T14:46:41.161Z,1.20
2018-08-11T14:49:10.119Z,1.10
2018-08-11T14:51:39.094Z,1.47
2018-08-11T14:54:08.092Z,1.40
2018-08-11T14:56:37.155Z,1.00
2018-08-11T14:59:06.130Z,1.40
2018-08-11T15:01:35.297Z,1.20
2018-08-11T15:04:04.388Z,1.20
2018-08-11T15:06:33.995Z,1.47
2018-08-11T15:09:03.192Z,1.43
2018-08-11T15:11:32.128Z,1.40
2018-08-11T15:14:01.116Z,1.10
2018-08-11T15:16:30.045Z,1.30
2018-08-11T15:18:59.101Z,1.20
2018-08-11T15:21:28.286Z,1.40
2018-08-11T15:23:58.480Z,1.33
2018-08-11T15:26:27.830Z,1.50
2018-08-11T15:28:56.862Z,1.50
2018-08-11T15:31:25.819Z,1.40
2018-08-11T15:33:54.764Z,1.17
2018-08-11T15:36:23.704Z,1.30
2018-08-11T15:38:53.005Z,1.00
2018-08-11T15:41:22.272Z,1.30
2018-08-11T15:43:52.052Z,1.53
2018-08-11T15:46:20.934Z,1.40
2018-08-11T15:48:50.686Z,1.50
2018-08-11T15:51:20.496Z,1.37
2018-08-11T15:53:49.398Z,1.30
2018-08-11T15:56:18.612Z,1.10
2018-08-11T15:58:47.547Z,1.40
2018-08-11T16:01:16.450Z,1.40
2018-08-11T16:03:46.480Z,1.53
2018-08-11T16:06:15.496Z,1.57
2018-08-11T16:08:45.472Z,1.40
2018-08-11T16:11:14.420Z,1.40
2018-08-11T16:13:43.492Z,1.60
2018-08-11T16:16:12.832Z,1.73
2018-08-11T16:18:41.778Z,1.57
2018-08-11T16:21:10.871Z,1.70
2018-08-11T16:23:39.909Z,1.33
2018-08-11T16:26:09.042Z,1.50
2018-08-11T16:28:38.486Z,1.50
2018-08-11T16:31:07.484Z,1.60
2018-08-11T16:33:37.226Z,1.47
2018-08-11T16:36:06.472Z,1.50
2018-08-11T16:38:36.199Z,1.43
2018-08-11T16:41:05.806Z,1.20
2018-08-11T16:43:34.944Z,1.30
2018-08-11T16:46:04.408Z,1.40
2018-08-11T16:48:33.414Z,1.50
2018-08-11T16:51:02.316Z,1.37
2018-08-11T16:53:32.438Z,1.87
2018-08-11T16:56:01.416Z,1.80
2018-08-11T16:58:31.254Z,1.30
2018-08-11T17:01:08.197Z,1.57
2018-08-11T17:03:37.904Z,1.50
2018-08-11T17:06:06.874Z,1.77
2018-08-11T17:08:36.846Z,1.47
2018-08-11T17:11:06.113Z,1.40
2018-08-11T17:13:37.678Z,1.30
2018-08-11T17:16:06.824Z,1.20
2018-08-11T17:18:35.786Z,1.10
2018-08-11T17:21:05.024Z,1.57
2018-08-11T17:23:34.306Z,1.57
2018-08-11T17:26:03.452Z,1.67
2018-08-11T17:28:32.468Z,1.60
2018-08-11T17:31:04.484Z,1.20
2018-08-11T17:33:33.510Z,1.57
2018-08-11T17:36:02.495Z,1.27
2018-08-11T17:38:31.530Z,1.60
2018-08-11T17:41:00.840Z,1.30
2018-08-11T17:43:29.999Z,1.80
2018-08-11T17:46:01.518Z,1.30
2018-08-11T17:48:30.600Z,1.20
2018-08-11T17:50:59.692Z,1.40
2018-08-11T17:53:28.849Z,1.23
2018-08-11T17:55:57.878Z,1.20
2018-08-11T17:58:26.856Z,1.93
2018-08-11T18:00:56.228Z,1.50
2018-08-11T18:03:26.140Z,1.60
2018-08-11T18:05:55.440Z,2.07
2018-08-11T18:08:24.688Z,1.70
2018-08-11T18:10:53.965Z,1.20
2018-08-11T18:13:22.966Z,1.80
2018-08-11T18:15:52.235Z,1.50
2018-08-11T18:18:21.457Z,1.27
2018-08-11T18:20:50.784Z,1.30
2018-08-11T18:23:20.043Z,1.17
2018-08-11T18:25:49.340Z,1.53
2018-08-11T18:28:18.335Z,1.33
2018-08-11T18:30:47.353Z,1.40
2018-08-11T18:33:19.839Z,1.70
2018-08-11T18:35:49.440Z,1.40
2018-08-11T18:38:18.526Z,1.63
2018-08-11T18:40:47.621Z,1.30
2018-08-11T18:43:17.586Z,1.37
2018-08-11T18:45:46.571Z,1.30
2018-08-11T18:48:16.058Z,1.60
2018-08-11T18:50:45.680Z,1.47
2018-08-11T18:53:14.837Z,1.47
2018-08-11T18:55:43.872Z,1.60
2018-08-11T18:58:13.008Z,2.00
2018-08-11T19:00:42.046Z,1.87
2018-08-11T19:03:11.100Z,1.50
2018-08-11T19:05:40.188Z,1.60
2018-08-11T19:08:09.482Z,2.00
2018-08-11T19:10:38.814Z,1.80
2018-08-11T19:13:08.164Z,1.43
2018-08-11T19:15:37.112Z,1.40
2018-08-11T19:18:06.686Z,1.60
2018-08-11T19:20:36.420Z,1.40
2018-08-11T19:23:05.853Z,1.57
2018-08-11T19:25:36.398Z,1.57
2018-08-11T19:28:06.052Z,1.60
2018-08-11T19:30:36.367Z,1.67
2018-08-11T19:33:05.380Z,1.50
2018-08-11T19:35:34.731Z,2.00
2018-08-11T19:38:04.068Z,1.50
2018-08-11T19:40:34.496Z,1.60
2018-08-11T19:43:03.565Z,2.20
2018-08-11T19:45:32.596Z,2.50
2018-08-11T19:48:01.737Z,2.30
2018-08-11T19:50:30.944Z,2.13
2018-08-11T19:52:59.945Z,1.90
2018-08-11T19:55:28.993Z,2.03
2018-08-11T19:57:58.373Z,2.20
2018-08-11T20:00:27.780Z,1.90
2018-08-11T20:02:57.864Z,1.97
2018-08-11T20:05:27.413Z,1.80
2018-08-11T20:07:56.426Z,1.93
2018-08-11T20:10:26.111Z,2.00
2018-08-11T20:12:55.087Z,1.80
2018-08-11T20:15:24.082Z,2.00
2018-08-11T20:17:53.123Z,1.80
2018-08-11T20:20:23.450Z,1.90
2018-08-11T20:22:53.065Z,2.07
2018-08-11T20:25:22.499Z,2.10
2018-08-11T20:27:51.248Z,2.30
2018-08-11T20:30:20.250Z,2.17
2018-08-11T20:32:49.289Z,2.40
2018-08-11T20:35:18.362Z,2.33
2018-08-11T20:37:47.458Z,2.83
2018-08-11T20:40:16.656Z,2.37
2018-08-11T20:42:45.961Z,2.60
2018-08-11T20:45:15.188Z,2.47
2018-08-11T20:47:49.818Z,3.20
2018-08-11T20:50:18.798Z,2.70
2018-08-11T20:52:47.774Z,3.87
2018-08-11T20:55:17.941Z,3.60
2018-08-11T20:57:46.965Z,3.33
2018-08-11T21:00:15.970Z,3.10
2018-08-11T21:02:44.942Z,3.43
2018-08-11T21:05:14.866Z,3.80
2018-08-11T21:07:43.809Z,3.20
2018-08-11T21:10:14.386Z,3.50
2018-08-11T21:12:43.681Z,3.30
2018-08-11T21:15:13.344Z,3.30
2018-08-11T21:17:42.349Z,2.90
2018-08-11T21:20:12.908Z,3.47
2018-08-11T21:22:41.924Z,3.20
2018-08-11T21:25:11.562Z,3.03
2018-08-11T21:27:40.561Z,3.47
2018-08-11T21:30:12.154Z,3.33
2018-08-11T21:32:43.008Z,3.10
2018-08-11T21:35:12.220Z,3.00
2018-08-11T21:37:41.224Z,2.73
2018-08-11T21:40:12.775Z,2.90
2018-08-11T21:42:42.274Z,3.17
2018-08-11T21:45:11.441Z,3.20
2018-08-11T21:47:41.480Z,3.10
2018-08-11T21:50:10.927Z,3.53
2018-08-11T21:52:40.279Z,3.20
2018-08-11T21:55:09.883Z,3.50
2018-08-11T21:57:39.189Z,3.23
2018-08-11T22:00:30.928Z,4.00
2018-08-11T22:03:00.303Z,3.40
2018-08-11T22:05:29.818Z,3.73
2018-08-11T22:08:00.128Z,3.43
2018-08-11T22:10:29.553Z,3.67
2018-08-11T22:12:58.756Z,2.70
2018-08-11T22:15:27.796Z,3.30
2018-08-11T22:17:56.803Z,3.10
2018-08-11T22:20:25.822Z,2.83
2018-08-11T22:22:56.106Z,2.93
2018-08-11T22:25:25.232Z,3.03
2018-08-11T22:27:54.984Z,2.53
2018-08-11T22:30:24.018Z,2.73
2018-08-11T22:32:53.083Z,2.77
2018-08-11T22:35:22.123Z,2.90
2018-08-11T22:37:51.093Z,2.50
2018-08-11T22:40:20.093Z,2.53
2018-08-11T22:42:49.087Z,2.40
2018-08-11T22:45:18.056Z,2.70
2018-08-11T22:47:47.039Z,2.90
2018-08-11T22:50:16.053Z,2.80
2018-08-11T22:52:45.111Z,2.47
2018-08-11T22:55:14.031Z,2.37
2018-08-11T22:57:43.035Z,2.70
2018-08-11T23:00:17.204Z,2.73
2018-08-11T23:02:46.470Z,3.27
2018-08-11T23:05:16.276Z,3.20
2018-08-11T23:07:45.229Z,2.57
2018-08-11T23:10:15.441Z,2.97
2018-08-11T23:12:45.282Z,2.60
2018-08-11T23:15:17.367Z,2.70
2018-08-11T23:17:47.543Z,3.10
2018-08-11T23:20:16.908Z,2.73
2018-08-11T23:22:45.991Z,2.80
2018-08-11T23:25:15.386Z,2.90
2018-08-11T23:27:44.418Z,3.43
2018-08-11T23:30:15.444Z,2.70
2018-08-11T23:32:44.651Z,2.90
2018-08-11T23:35:14.022Z,2.53
2018-08-11T23:37:43.300Z,2.27
2018-08-11T23:40:12.439Z,2.13
2018-08-11T23:42:41.481Z,2.63
2018-08-11T23:45:13.286Z,2.27
2018-08-11T23:47:42.611Z,2.60
2018-08-11T23:50:12.502Z,2.57
2018-08-11T23:52:42.487Z,2.40
2018-08-11T23:55:12.595Z,2.83
2018-08-11T23:57:41.681Z,3.00
